sensor_id;sensor_type;location;lat;lon;timestamp;pressure;altitude;pressure_sealevel;temperature;humidity
10806;BME280;5455;53.224;6.000;2022-09-30T00:01:05;100764.03;;;9.01;100.00
10806;BME280;5455;53.224;6.000;2022-09-30T00:03:32;100760.81;;;8.99;100.00
10806;BME280;5455;53.224;6.000;2022-09-30T00:06:00;100758.56;;;9.01;100.00
10806;BME280;5455;53.224;6.000;2022-09-30T00:08:35;100754.19;;;9.00;100.00
10806;BME280;5455;53.224;6.000;2022-09-30T00:11:10;100751.69;;;8.95;100.00
10806;BME280;5455;53.224;6.000;2022-09-30T00:13:39;100752.72;;;8.90;100.00
10806;BME280;5455;53.224;6.000;2022-09-30T00:16:08;100758.59;;;8.89;100.00
10806;BME280;5455;53.224;6.000;2022-09-30T00:18:37;100767.88;;;8.84;100.00
10806;BME280;5455;53.224;6.000;2022-09-30T00:21:04;100771.59;;;8.76;100.00
10806;BME280;5455;53.224;6.000;2022-09-30T00:23:31;100761.63;;;8.71;100.00
10806;BME280;5455;53.224;6.000;2022-09-30T00:26:00;100766.22;;;8.67;100.00
10806;BME280;5455;53.224;6.000;2022-09-30T00:28:28;100767.81;;;8.68;100.00
10806;BME280;5455;53.224;6.000;2022-09-30T00:30:59;100765.97;;;8.72;100.00
10806;BME280;5455;53.224;6.000;2022-09-30T00:33:27;100769.16;;;8.74;100.00
10806;BME280;5455;53.224;6.000;2022-09-30T00:35:54;100766.09;;;8.76;100.00
10806;BME280;5455;53.224;6.000;2022-09-30T00:38:21;100774.22;;;8.72;100.00
10806;BME280;5455;53.224;6.000;2022-09-30T00:40:48;100759.22;;;8.70;100.00
10806;BME280;5455;53.224;6.000;2022-09-30T00:43:36;100771.25;;;8.65;100.00
10806;BME280;5455;53.224;6.000;2022-09-30T00:46:05;100766.00;;;8.60;100.00
10806;BME280;5455;53.224;6.000;2022-09-30T00:48:36;100773.44;;;8.60;100.00
10806;BME280;5455;53.224;6.000;2022-09-30T00:51:05;100765.09;;;8.56;100.00
10806;BME280;5455;53.224;6.000;2022-09-30T00:53:40;100761.78;;;8.51;100.00
10806;BME280;5455;53.224;6.000;2022-09-30T00:56:21;100775.19;;;8.52;100.00
10806;BME280;5455;53.224;6.000;2022-09-30T00:59:06;100769.69;;;8.52;100.00
10806;BME280;5455;53.224;6.000;2022-09-30T01:01:35;100767.28;;;8.51;100.00
10806;BME280;5455;53.224;6.000;2022-09-30T01:04:13;100767.16;;;8.47;100.00
10806;BME280;5455;53.224;6.000;2022-09-30T01:06:41;100770.16;;;8.42;100.00
10806;BME280;5455;53.224;6.000;2022-09-30T01:09:09;100767.88;;;8.44;100.00
10806;BME280;5455;53.224;6.000;2022-09-30T01:11:36;100768.66;;;8.45;100.00
10806;BME280;5455;53.224;6.000;2022-09-30T01:14:15;100768.66;;;8.45;100.00
10806;BME280;5455;53.224;6.000;2022-09-30T01:17:04;100760.22;;;8.50;100.00
10806;BME280;5455;53.224;6.000;2022-09-30T01:30:54;100792.84;;;8.91;100.00
10806;BME280;5455;53.224;6.000;2022-09-30T01:39:05;100782.00;;;8.82;100.00
10806;BME280;5455;53.224;6.000;2022-09-30T01:41:51;100785.31;;;8.76;100.00
10806;BME280;5455;53.224;6.000;2022-09-30T01:44:34;100782.03;;;8.70;100.00
10806;BME280;5455;53.224;6.000;2022-09-30T01:47:33;100785.09;;;8.69;100.00
10806;BME280;5455;53.224;6.000;2022-09-30T01:52:42;100780.41;;;8.69;100.00
10806;BME280;5455;53.224;6.000;2022-09-30T01:55:22;100789.78;;;8.68;100.00
10806;BME280;5455;53.224;6.000;2022-09-30T02:00:29;100787.41;;;8.67;100.00
10806;BME280;5455;53.224;6.000;2022-09-30T02:05:39;100785.72;;;8.50;100.00
10806;BME280;5455;53.224;6.000;2022-09-30T02:08:25;100785.63;;;8.47;100.00
10806;BME280;5455;53.224;6.000;2022-09-30T02:10:58;100785.72;;;8.50;100.00
10806;BME280;5455;53.224;6.000;2022-09-30T02:16:48;100797.19;;;8.52;100.00
10806;BME280;5455;53.224;6.000;2022-09-30T02:19:32;100785.50;;;8.55;100.00
10806;BME280;5455;53.224;6.000;2022-09-30T02:22:11;100780.88;;;8.59;100.00
10806;BME280;5455;53.224;6.000;2022-09-30T02:24:41;100778.13;;;8.59;100.00
10806;BME280;5455;53.224;6.000;2022-09-30T02:27:23;100786.50;;;8.63;100.00
10806;BME280;5455;53.224;6.000;2022-09-30T02:29:57;100782.25;;;8.65;100.00
10806;BME280;5455;53.224;6.000;2022-09-30T02:32:30;100784.31;;;8.68;100.00
10806;BME280;5455;53.224;6.000;2022-09-30T02:35:06;100778.81;;;8.68;100.00
10806;BME280;5455;53.224;6.000;2022-09-30T02:37:40;100778.47;;;8.70;100.00
10806;BME280;5455;53.224;6.000;2022-09-30T02:40:12;100782.03;;;8.70;100.00
10806;BME280;5455;53.224;6.000;2022-09-30T02:42:43;100785.09;;;8.69;100.00
10806;BME280;5455;53.224;6.000;2022-09-30T02:45:14;100781.91;;;8.67;100.00
10806;BME280;5455;53.224;6.000;2022-09-30T02:55:31;100775.34;;;8.71;100.00
10806;BME280;5455;53.224;6.000;2022-09-30T02:58:18;100784.88;;;8.74;100.00
10806;BME280;5455;53.224;6.000;2022-09-30T03:00:47;100791.63;;;8.76;100.00
10806;BME280;5455;53.224;6.000;2022-09-30T03:03:20;100791.63;;;8.76;100.00
10806;BME280;5455;53.224;6.000;2022-09-30T03:05:49;100795.19;;;8.77;100.00
10806;BME280;5455;53.224;6.000;2022-09-30T03:08:16;100797.81;;;8.73;100.00
10806;BME280;5455;53.224;6.000;2022-09-30T03:10:43;100793.72;;;8.67;100.00
10806;BME280;5455;53.224;6.000;2022-09-30T03:21:33;100807.09;;;8.69;100.00
10806;BME280;5455;53.224;6.000;2022-09-30T03:27:03;100801.41;;;8.62;100.00
10806;BME280;5455;53.224;6.000;2022-09-30T03:32:58;100802.88;;;8.47;100.00
10806;BME280;5455;53.224;6.000;2022-09-30T03:35:36;100789.41;;;8.42;100.00
10806;BME280;5455;53.224;6.000;2022-09-30T03:48:33;100797.63;;;8.18;100.00
10806;BME280;5455;53.224;6.000;2022-09-30T03:51:02;100804.63;;;8.15;100.00
10806;BME280;5455;53.224;6.000;2022-09-30T03:53:37;100806.56;;;8.15;100.00
10806;BME280;5455;53.224;6.000;2022-09-30T03:56:04;100802.22;;;8.14;100.00
10806;BME280;5455;53.224;6.000;2022-09-30T03:58:31;100802.31;;;8.17;100.00
10806;BME280;5455;53.224;6.000;2022-09-30T04:00:58;100793.06;;;8.22;100.00
10806;BME280;5455;53.224;6.000;2022-09-30T04:03:25;100805.19;;;8.21;100.00
10806;BME280;5455;53.224;6.000;2022-09-30T04:05:53;100803.13;;;8.18;100.00
10806;BME280;5455;53.224;6.000;2022-09-30T04:08:20;100816.53;;;8.19;100.00
10806;BME280;5455;53.224;6.000;2022-09-30T04:10:48;100803.59;;;8.20;100.00
10806;BME280;5455;53.224;6.000;2022-09-30T04:13:16;100811.72;;;8.16;100.00
10806;BME280;5455;53.224;6.000;2022-09-30T04:15:42;100815.59;;;8.15;100.00
10806;BME280;5455;53.224;6.000;2022-09-30T04:18:09;100814.81;;;8.15;100.00
10806;BME280;5455;53.224;6.000;2022-09-30T04:20:37;100815.59;;;8.15;100.00
10806;BME280;5455;53.224;6.000;2022-09-30T04:23:03;100812.28;;;8.10;100.00
10806;BME280;5455;53.224;6.000;2022-09-30T04:25:31;100815.16;;;8.01;100.00
10806;BME280;5455;53.224;6.000;2022-09-30T04:27:57;100813.41;;;7.97;100.00
10806;BME280;5455;53.224;6.000;2022-09-30T04:30:24;100811.47;;;7.97;100.00
10806;BME280;5455;53.224;6.000;2022-09-30T04:32:58;100815.72;;;7.95;100.00
10806;BME280;5455;53.224;6.000;2022-09-30T04:35:25;100816.53;;;7.95;100.00
10806;BME280;5455;53.224;6.000;2022-09-30T04:37:56;100818.09;;;7.96;100.00
10806;BME280;5455;53.224;6.000;2022-09-30T04:40:23;100823.16;;;7.94;100.00
10806;BME280;5455;53.224;6.000;2022-09-30T04:42:55;100828.75;;;7.86;100.00
10806;BME280;5455;53.224;6.000;2022-09-30T04:45:22;100829.31;;;7.79;100.00
10806;BME280;5455;53.224;6.000;2022-09-30T04:47:50;100826.91;;;7.78;100.00
10806;BME280;5455;53.224;6.000;2022-09-30T04:50:17;100835.00;;;7.74;100.00
10806;BME280;5455;53.224;6.000;2022-09-30T04:52:44;100830.88;;;7.68;100.00
10806;BME280;5455;53.224;6.000;2022-09-30T04:55:10;100825.38;;;7.56;100.00
10806;BME280;5455;53.224;6.000;2022-09-30T04:57:37;100832.66;;;7.52;100.00
10806;BME280;5455;53.224;6.000;2022-09-30T05:00:05;100851.63;;;7.45;100.00
10806;BME280;5455;53.224;6.000;2022-09-30T05:02:35;100856.19;;;7.41;100.00
10806;BME280;5455;53.224;6.000;2022-09-30T05:05:02;100858.13;;;7.40;100.00
10806;BME280;5455;53.224;6.000;2022-09-30T05:07:30;100854.56;;;7.40;100.00
10806;BME280;5455;53.224;6.000;2022-09-30T05:09:57;100858.34;;;7.35;100.00
10806;BME280;5455;53.224;6.000;2022-09-30T05:12:24;100860.13;;;7.31;100.00
10806;BME280;5455;53.224;6.000;2022-09-30T05:14:51;100867.78;;;7.26;100.00
10806;BME280;5455;53.224;6.000;2022-09-30T05:17:18;100868.09;;;7.24;100.00
10806;BME280;5455;53.224;6.000;2022-09-30T05:19:45;100861.69;;;7.20;100.00
10806;BME280;5455;53.224;6.000;2022-09-30T05:22:13;100852.22;;;7.17;100.00
10806;BME280;5455;53.224;6.000;2022-09-30T05:24:40;100853.66;;;7.15;100.00
10806;BME280;5455;53.224;6.000;2022-09-30T05:27:07;100850.59;;;7.16;100.00
10806;BME280;5455;53.224;6.000;2022-09-30T05:29:34;100857.69;;;7.17;100.00
10806;BME280;5455;53.224;6.000;2022-09-30T05:32:01;100855.63;;;7.14;100.00
10806;BME280;5455;53.224;6.000;2022-09-30T05:34:28;100853.56;;;7.11;100.00
10806;BME280;5455;53.224;6.000;2022-09-30T05:36:56;100853.22;;;7.13;100.00
10806;BME280;5455;53.224;6.000;2022-09-30T05:39:23;100852.88;;;7.14;100.00
10806;BME280;5455;53.224;6.000;2022-09-30T05:41:51;100858.47;;;7.18;100.00
10806;BME280;5455;53.224;6.000;2022-09-30T05:44:17;100864.22;;;7.25;100.00
10806;BME280;5455;53.224;6.000;2022-09-30T05:46:45;100879.88;;;7.25;100.00
10806;BME280;5455;53.224;6.000;2022-09-30T05:49:11;100876.31;;;7.24;100.00
10806;BME280;5455;53.224;6.000;2022-09-30T05:51:39;100876.00;;;7.26;100.00
10806;BME280;5455;53.224;6.000;2022-09-30T05:54:06;100886.63;;;7.27;100.00
10806;BME280;5455;53.224;6.000;2022-09-30T05:56:33;100886.31;;;7.29;100.00
10806;BME280;5455;53.224;6.000;2022-09-30T05:59:00;100885.94;;;7.30;100.00
10806;BME280;5455;53.224;6.000;2022-09-30T06:01:27;100888.03;;;7.33;100.00
10806;BME280;5455;53.224;6.000;2022-09-30T06:03:54;100883.47;;;7.37;100.00
10806;BME280;5455;53.224;6.000;2022-09-30T06:06:21;100878.94;;;7.41;100.00
10806;BME280;5455;53.224;6.000;2022-09-30T06:08:48;100876.56;;;7.52;100.00
10806;BME280;5455;53.224;6.000;2022-09-30T06:11:20;100889.72;;;7.58;100.00
10806;BME280;5455;53.224;6.000;2022-09-30T06:13:49;100879.47;;;7.67;100.00
10806;BME280;5455;53.224;6.000;2022-09-30T06:16:17;100880.19;;;7.76;100.00
10806;BME280;5455;53.224;6.000;2022-09-30T06:18:44;100882.84;;;7.85;100.00
10806;BME280;5455;53.224;6.000;2022-09-30T06:21:13;100887.78;;;7.92;100.00
10806;BME280;5455;53.224;6.000;2022-09-30T06:23:41;100886.41;;;7.98;100.00
10806;BME280;5455;53.224;6.000;2022-09-30T06:26:10;100880.56;;;7.99;100.00
10806;BME280;5455;53.224;6.000;2022-09-30T06:28:38;100879.56;;;8.04;100.00
10806;BME280;5455;53.224;6.000;2022-09-30T06:31:05;100874.88;;;8.04;100.00
10806;BME280;5455;53.224;6.000;2022-09-30T06:33:33;100887.00;;;8.03;100.00
10806;BME280;5455;53.224;6.000;2022-09-30T06:36:00;100885.19;;;8.07;100.00
10806;BME280;5455;53.224;6.000;2022-09-30T06:38:31;100884.81;;;8.09;100.00
10806;BME280;5455;53.224;6.000;2022-09-30T06:40:59;100887.34;;;8.14;100.00
10806;BME280;5455;53.224;6.000;2022-09-30T06:43:27;100888.38;;;8.21;100.00
10806;BME280;5455;53.224;6.000;2022-09-30T06:45:54;100894.44;;;8.27;100.00
10806;BME280;5455;53.224;6.000;2022-09-30T06:48:37;100897.13;;;8.36;100.00
10806;BME280;5455;53.224;6.000;2022-09-30T06:51:05;100890.38;;;8.45;100.00
10806;BME280;5455;53.224;6.000;2022-09-30T06:53:38;100892.31;;;8.57;100.00
10806;BME280;5455;53.224;6.000;2022-09-30T06:56:05;100897.47;;;8.70;100.00
10806;BME280;5455;53.224;6.000;2022-09-30T06:58:32;100908.56;;;8.86;100.00
10806;BME280;5455;53.224;6.000;2022-09-30T07:01:01;100902.91;;;9.07;100.00
10806;BME280;5455;53.224;6.000;2022-09-30T07:03:32;100911.56;;;9.21;100.00
10806;BME280;5455;53.224;6.000;2022-09-30T07:06:03;100903.97;;;9.30;100.00
10806;BME280;5455;53.224;6.000;2022-09-30T07:08:32;100908.78;;;9.33;100.00
10806;BME280;5455;53.224;6.000;2022-09-30T07:11:02;100917.00;;;9.45;100.00
10806;BME280;5455;53.224;6.000;2022-09-30T07:13:30;100899.63;;;9.57;100.00
10806;BME280;5455;53.224;6.000;2022-09-30T07:15:58;100905.78;;;9.66;100.00
10806;BME280;5455;53.224;6.000;2022-09-30T07:18:26;100911.13;;;9.74;100.00
10806;BME280;5455;53.224;6.000;2022-09-30T07:20:55;100908.53;;;9.93;100.00
10806;BME280;5455;53.224;6.000;2022-09-30T07:23:22;100905.59;;;10.02;100.00
10806;BME280;5455;53.224;6.000;2022-09-30T07:25:55;100899.22;;;10.14;100.00
10806;BME280;5455;53.224;6.000;2022-09-30T07:28:29;100899.06;;;10.22;100.00
10806;BME280;5455;53.224;6.000;2022-09-30T07:30:59;100893.34;;;10.31;100.00
10806;BME280;5455;53.224;6.000;2022-09-30T07:33:48;100891.41;;;10.47;100.00
10806;BME280;5455;53.224;6.000;2022-09-30T07:36:20;100896.38;;;10.57;100.00
10806;BME280;5455;53.224;6.000;2022-09-30T07:38:56;100897.84;;;10.70;100.00
10806;BME280;5455;53.224;6.000;2022-09-30T07:41:25;100893.22;;;10.74;100.00
10806;BME280;5455;53.224;6.000;2022-09-30T07:43:56;100891.81;;;10.80;100.00
10806;BME280;5455;53.224;6.000;2022-09-30T07:46:27;100893.22;;;10.90;100.00
10806;BME280;5455;53.224;6.000;2022-09-30T07:48:57;100892.63;;;11.00;100.00
10806;BME280;5455;53.224;6.000;2022-09-30T07:51:29;100884.38;;;11.19;100.00
10806;BME280;5455;53.224;6.000;2022-09-30T07:54:03;100888.22;;;11.34;100.00
10806;BME280;5455;53.224;6.000;2022-09-30T07:56:32;100888.00;;;11.42;100.00
10806;BME280;5455;53.224;6.000;2022-09-30T07:59:20;100891.44;;;11.55;100.00
10806;BME280;5455;53.224;6.000;2022-09-30T08:01:47;100889.25;;;11.64;100.00
10806;BME280;5455;53.224;6.000;2022-09-30T08:04:15;100891.81;;;11.73;100.00
10806;BME280;5455;53.224;6.000;2022-09-30T08:06:48;100890.41;;;11.82;100.00
10806;BME280;5455;53.224;6.000;2022-09-30T08:09:18;100894.97;;;11.94;100.00
10806;BME280;5455;53.224;6.000;2022-09-30T08:11:46;100903.00;;;12.02;100.00
10806;BME280;5455;53.224;6.000;2022-09-30T08:14:16;100883.97;;;11.97;100.00
10806;BME280;5455;53.224;6.000;2022-09-30T08:16:44;100894.13;;;12.12;100.00
10806;BME280;5455;53.224;6.000;2022-09-30T08:19:17;100893.19;;;12.28;100.00
10806;BME280;5455;53.224;6.000;2022-09-30T08:21:45;100896.59;;;12.44;100.00
10806;BME280;5455;53.224;6.000;2022-09-30T08:24:12;100883.31;;;12.53;100.00
10806;BME280;5455;53.224;6.000;2022-09-30T08:26:39;100893.22;;;12.54;100.00
10806;BME280;5455;53.224;6.000;2022-09-30T08:29:07;100897.69;;;12.62;100.00
10806;BME280;5455;53.224;6.000;2022-09-30T08:31:47;100890.25;;;12.66;100.00
10806;BME280;5455;53.224;6.000;2022-09-30T08:34:14;100897.94;;;12.76;100.00
10806;BME280;5455;53.224;6.000;2022-09-30T08:36:41;100892.06;;;12.81;100.00
10806;BME280;5455;53.224;6.000;2022-09-30T08:39:08;100891.31;;;12.84;100.00
10806;BME280;5455;53.224;6.000;2022-09-30T08:44:51;100884.28;;;12.90;100.00
10806;BME280;5455;53.224;6.000;2022-09-30T08:47:45;100882.47;;;13.01;100.00
10806;BME280;5455;53.224;6.000;2022-09-30T08:52:52;100891.75;;;13.12;100.00
10806;BME280;5455;53.224;6.000;2022-09-30T08:55:23;100904.81;;;13.12;100.00
10806;BME280;5455;53.224;6.000;2022-09-30T08:57:52;100906.78;;;13.11;100.00
10806;BME280;5455;53.224;6.000;2022-09-30T09:00:21;100908.44;;;13.19;100.00
10806;BME280;5455;53.224;6.000;2022-09-30T09:02:54;100906.91;;;13.22;100.00
10806;BME280;5455;53.224;6.000;2022-09-30T09:08:08;100913.44;;;13.37;100.00
10806;BME280;5455;53.224;6.000;2022-09-30T09:10:43;100908.78;;;13.44;100.00
10806;BME280;5455;53.224;6.000;2022-09-30T09:20:58;100911.91;;;13.72;100.00
10806;BME280;5455;53.224;6.000;2022-09-30T09:23:29;100911.50;;;13.74;100.00
10806;BME280;5455;53.224;6.000;2022-09-30T09:25:58;100915.16;;;13.82;100.00
10806;BME280;5455;53.224;6.000;2022-09-30T09:31:19;100918.50;;;13.98;100.00
10806;BME280;5455;53.224;6.000;2022-09-30T09:33:47;100909.09;;;14.09;100.00
10806;BME280;5455;53.224;6.000;2022-09-30T09:36:44;100912.72;;;14.13;100.00
10806;BME280;5455;53.224;6.000;2022-09-30T09:39:25;100912.81;;;14.24;100.00
10806;BME280;5455;53.224;6.000;2022-09-30T09:47:39;100906.88;;;14.66;100.00
10806;BME280;5455;53.224;6.000;2022-09-30T09:50:14;100899.72;;;14.65;100.00
10806;BME280;5455;53.224;6.000;2022-09-30T09:52:57;100901.38;;;14.76;100.00
10806;BME280;5455;53.224;6.000;2022-09-30T09:55:28;100900.66;;;14.90;100.00
10806;BME280;5455;53.224;6.000;2022-09-30T09:58:10;100902.34;;;15.02;100.00
10806;BME280;5455;53.224;6.000;2022-09-30T10:00:40;100888.53;;;15.16;100.00
10806;BME280;5455;53.224;6.000;2022-09-30T10:03:21;100896.50;;;15.24;100.00
10806;BME280;5455;53.224;6.000;2022-09-30T10:08:37;100894.59;;;15.39;100.00
10806;BME280;5455;53.224;6.000;2022-09-30T10:11:16;100893.78;;;15.31;100.00
10806;BME280;5455;53.224;6.000;2022-09-30T10:13:44;100882.28;;;15.36;100.00
10806;BME280;5455;53.224;6.000;2022-09-30T10:16:33;100876.41;;;15.49;100.00
10806;BME280;5455;53.224;6.000;2022-09-30T10:19:03;100873.63;;;15.49;100.00
10806;BME280;5455;53.224;6.000;2022-09-30T10:21:35;100876.75;;;15.40;100.00
10806;BME280;5455;53.224;6.000;2022-09-30T10:24:23;100868.88;;;15.53;100.00
10806;BME280;5455;53.224;6.000;2022-09-30T10:26:53;100874.13;;;15.86;100.00
10806;BME280;5455;53.224;6.000;2022-09-30T10:31:57;100876.53;;;16.02;96.19
10806;BME280;5455;53.224;6.000;2022-09-30T10:34:29;100882.09;;;16.05;92.57
10806;BME280;5455;53.224;6.000;2022-09-30T10:37:00;100885.28;;;16.14;92.41
10806;BME280;5455;53.224;6.000;2022-09-30T10:39:35;100881.34;;;16.19;92.15
10806;BME280;5455;53.224;6.000;2022-09-30T10:42:24;100890.47;;;16.19;90.99
10806;BME280;5455;53.224;6.000;2022-09-30T10:45:00;100886.09;;;16.18;88.91
10806;BME280;5455;53.224;6.000;2022-09-30T10:47:30;100883.31;;;16.22;88.44
10806;BME280;5455;53.224;6.000;2022-09-30T10:50:09;100889.28;;;16.20;87.58
10806;BME280;5455;53.224;6.000;2022-09-30T10:52:40;100885.28;;;16.14;84.76
10806;BME280;5455;53.224;6.000;2022-09-30T10:55:35;100891.66;;;16.32;85.41
10806;BME280;5455;53.224;6.000;2022-09-30T11:03:42;100884.09;;;16.82;84.12
10806;BME280;5455;53.224;6.000;2022-09-30T11:06:12;100882.81;;;17.19;84.46
10806;BME280;5455;53.224;6.000;2022-09-30T11:08:54;100891.16;;;17.33;81.11
10806;BME280;5455;53.224;6.000;2022-09-30T11:11:37;100885.09;;;17.48;81.71
10806;BME280;5455;53.224;6.000;2022-09-30T11:14:15;100886.25;;;17.65;80.66
10806;BME280;5455;53.224;6.000;2022-09-30T11:17:05;100890.66;;;17.59;79.14
10806;BME280;5455;53.224;6.000;2022-09-30T11:22:51;100887.09;;;17.55;74.48
10806;BME280;5455;53.224;6.000;2022-09-30T11:33:59;100878.03;;;17.30;73.49
10806;BME280;5455;53.224;6.000;2022-09-30T11:39:31;100869.97;;;17.46;77.62
10806;BME280;5455;53.224;6.000;2022-09-30T11:42:06;100868.34;;;17.59;75.66
10806;BME280;5455;53.224;6.000;2022-09-30T11:44:40;100867.53;;;17.69;74.41
10806;BME280;5455;53.224;6.000;2022-09-30T11:47:33;100859.22;;;17.55;72.73
10806;BME280;5455;53.224;6.000;2022-09-30T11:58:22;100849.34;;;17.36;71.25
10806;BME280;5455;53.224;6.000;2022-09-30T12:04:02;100848.53;;;17.32;71.81
10806;BME280;5455;53.224;6.000;2022-09-30T12:06:34;100839.47;;;17.14;72.23
10806;BME280;5455;53.224;6.000;2022-09-30T12:09:07;100847.81;;;17.21;72.82
10806;BME280;5455;53.224;6.000;2022-09-30T12:11:43;100845.84;;;17.15;71.87
10806;BME280;5455;53.224;6.000;2022-09-30T12:14:29;100833.53;;;16.94;69.14
10806;BME280;5455;53.224;6.000;2022-09-30T12:17:00;100831.16;;;17.00;70.22
10806;BME280;5455;53.224;6.000;2022-09-30T12:19:35;100831.91;;;17.18;71.45
10806;BME280;5455;53.224;6.000;2022-09-30T12:22:21;100834.53;;;17.43;72.93
10806;BME280;5455;53.224;6.000;2022-09-30T12:24:49;100830.13;;;17.56;71.53
10806;BME280;5455;53.224;6.000;2022-09-30T12:27:32;100825.75;;;17.55;71.55
10806;BME280;5455;53.224;6.000;2022-09-30T12:30:02;100821.38;;;17.54;71.79
10806;BME280;5455;53.224;6.000;2022-09-30T12:41:24;100817.44;;;17.37;75.09
10806;BME280;5455;53.224;6.000;2022-09-30T12:44:23;100808.59;;;17.53;74.03
10806;BME280;5455;53.224;6.000;2022-09-30T12:49:18;100804.66;;;17.50;72.10
10806;BME280;5455;53.224;6.000;2022-09-30T12:51:49;100808.63;;;17.49;69.06
10806;BME280;5455;53.224;6.000;2022-09-30T12:55:04;100813.78;;;17.58;70.46
10806;BME280;5455;53.224;6.000;2022-09-30T12:57:10;100804.56;;;17.68;70.10
10806;BME280;5455;53.224;6.000;2022-09-30T12:59:50;100809.78;;;17.63;70.09
10806;BME280;5455;53.224;6.000;2022-09-30T13:02:33;100807.28;;;17.79;68.36
10806;BME280;5455;53.224;6.000;2022-09-30T13:10:33;100786.03;;;17.95;68.82
10806;BME280;5455;53.224;6.000;2022-09-30T13:26:40;100773.22;;;18.01;64.48
10806;BME280;5455;53.224;6.000;2022-09-30T13:34:28;100758.19;;;17.88;64.69
10806;BME280;5455;53.224;6.000;2022-09-30T13:37:03;100759.75;;;17.93;63.80
10806;BME280;5455;53.224;6.000;2022-09-30T13:39:48;100754.09;;;18.00;65.51
10806;BME280;5455;53.224;6.000;2022-09-30T13:42:23;100756.00;;;18.10;65.45
10806;BME280;5455;53.224;6.000;2022-09-30T13:52:57;100746.00;;;18.16;65.01
10806;BME280;5455;53.224;6.000;2022-09-30T13:55:47;100746.84;;;18.09;65.07
10806;BME280;5455;53.224;6.000;2022-09-30T13:58:40;100739.63;;;18.15;65.29
10806;BME280;5455;53.224;6.000;2022-09-30T14:01:24;100740.25;;;18.30;65.03
10806;BME280;5455;53.224;6.000;2022-09-30T14:07:03;100731.66;;;18.14;63.91
10806;BME280;5455;53.224;6.000;2022-09-30T14:19:00;100729.25;;;18.16;64.96
10806;BME280;5455;53.224;6.000;2022-09-30T14:21:40;100721.19;;;18.25;65.11
10806;BME280;5455;53.224;6.000;2022-09-30T14:24:16;100720.19;;;18.05;64.54
10806;BME280;5455;53.224;6.000;2022-09-30T14:32:33;100713.97;;;17.87;62.69
10806;BME280;5455;53.224;6.000;2022-09-30T14:35:06;100709.63;;;17.82;62.99
10806;BME280;5455;53.224;6.000;2022-09-30T14:37:41;100717.25;;;17.78;63.31
10806;BME280;5455;53.224;6.000;2022-09-30T14:40:12;100704.16;;;17.72;64.29
10806;BME280;5455;53.224;6.000;2022-09-30T14:42:42;100702.22;;;17.61;64.65
10806;BME280;5455;53.224;6.000;2022-09-30T14:45:23;100696.28;;;17.59;65.13
10806;BME280;5455;53.224;6.000;2022-09-30T14:47:55;100694.22;;;17.67;65.22
10806;BME280;5455;53.224;6.000;2022-09-30T14:50:28;100693.81;;;17.69;65.48
10806;BME280;5455;53.224;6.000;2022-09-30T14:52:58;100695.38;;;17.70;66.35
10806;BME280;5455;53.224;6.000;2022-09-30T14:55:34;100689.09;;;17.58;66.22
10806;BME280;5455;53.224;6.000;2022-09-30T15:00:58;100683.16;;;17.49;67.27
10806;BME280;5455;53.224;6.000;2022-09-30T15:03:27;100681.28;;;17.39;66.88
10806;BME280;5455;53.224;6.000;2022-09-30T15:05:55;100684.88;;;17.36;67.53
10806;BME280;5455;53.224;6.000;2022-09-30T15:08:24;100681.69;;;17.34;68.19
10806;BME280;5455;53.224;6.000;2022-09-30T15:10:53;100684.34;;;17.55;68.25
10806;BME280;5455;53.224;6.000;2022-09-30T15:13:24;100679.72;;;17.83;67.45
10806;BME280;5455;53.224;6.000;2022-09-30T15:15:52;100681.44;;;18.14;66.80
10806;BME280;5455;53.224;6.000;2022-09-30T15:18:29;100688.03;;;18.31;65.31
10806;BME280;5455;53.224;6.000;2022-09-30T15:21:09;100688.81;;;18.31;64.90
10806;BME280;5455;53.224;6.000;2022-09-30T15:23:44;100684.06;;;18.28;65.60
10806;BME280;5455;53.224;6.000;2022-09-30T15:26:13;100696.72;;;17.99;66.04
10806;BME280;5455;53.224;6.000;2022-09-30T15:28:41;100689.63;;;17.91;67.55
10806;BME280;5455;53.224;6.000;2022-09-30T15:31:29;100689.19;;;17.96;66.24
10806;BME280;5455;53.224;6.000;2022-09-30T15:34:03;100683.81;;;18.12;66.07
10806;BME280;5455;53.224;6.000;2022-09-30T15:36:30;100682.66;;;18.09;66.33
10806;BME280;5455;53.224;6.000;2022-09-30T15:38:58;100689.09;;;18.03;66.95
10806;BME280;5455;53.224;6.000;2022-09-30T15:41:25;100680.22;;;17.74;67.03
10806;BME280;5455;53.224;6.000;2022-09-30T15:43:53;100681.16;;;17.57;68.41
10806;BME280;5455;53.224;6.000;2022-09-30T15:46:24;100683.25;;;17.42;69.13
10806;BME280;5455;53.224;6.000;2022-09-30T15:49:03;100675.38;;;17.30;70.40
10806;BME280;5455;53.224;6.000;2022-09-30T15:51:40;100691.34;;;17.16;71.39
10806;BME280;5455;53.224;6.000;2022-09-30T15:56:41;100693.84;;;16.99;73.06
10806;BME280;5455;53.224;6.000;2022-09-30T15:59:10;100688.31;;;16.92;73.47
10806;BME280;5455;53.224;6.000;2022-09-30T16:04:11;100682.84;;;16.78;75.33
10806;BME280;5455;53.224;6.000;2022-09-30T16:14:28;100679.31;;;16.49;78.13
10806;BME280;5455;53.224;6.000;2022-09-30T16:16:58;100676.56;;;16.46;78.20
10806;BME280;5455;53.224;6.000;2022-09-30T16:19:28;100671.41;;;16.44;78.68
10806;BME280;5455;53.224;6.000;2022-09-30T16:21:56;100668.25;;;16.42;78.73
10806;BME280;5455;53.224;6.000;2022-09-30T16:26:52;100661.88;;;16.38;79.83
10806;BME280;5455;53.224;6.000;2022-09-30T16:29:22;100661.50;;;16.36;80.09
10806;BME280;5455;53.224;6.000;2022-09-30T16:31:50;100653.94;;;16.37;80.65
10806;BME280;5455;53.224;6.000;2022-09-30T16:34:28;100657.13;;;16.35;80.25
10806;BME280;5455;53.224;6.000;2022-09-30T16:37:17;100658.34;;;16.27;80.59
10806;BME280;5455;53.224;6.000;2022-09-30T16:39:44;100664.28;;;16.26;81.00
10806;BME280;5455;53.224;6.000;2022-09-30T16:42:14;100659.53;;;16.19;80.88
10806;BME280;5455;53.224;6.000;2022-09-30T16:44:41;100660.34;;;16.16;80.63
10806;BME280;5455;53.224;6.000;2022-09-30T16:47:14;100650.44;;;16.08;80.81